Flight Track Log - Related Links

Times and Time Zones

All times are in EDT time to prevent confusion due to time zone crossing. See the AWI3704 flight status page for this flight to view local times or setup timezone preferences in your user account.

Time Position Orientation Groundspeed Altitude Reporting Facility
EDT Latitude Longitude Course Direction KTS MPH feet Rate Location/Type
Sun 11:48:38 AM 42.7047 -73.8103 190° South 165 190 1,700  Level Boston Center
Sun 11:49:45 AM 42.7017 -73.8922 267° West 230 265 3,900 1,875 Climbing Boston Center
Sun 11:50:00 AM 42.7334 -74.1641 270° West  Level FlightAware Approximate
Sun 11:50:46 AM 42.7067 -73.9800 274° West 238 274 5,700  Level Boston Center
Sun 11:51:00 AM 42.7333 -74.2855 270° West  Level FlightAware Approximate
Sun 11:51:46 AM 42.6681 -74.0581 236° Southwest 238 274 8,800  Level Boston Center
Sun 11:52:00 AM 42.6790 -74.3758 220° Southwest  Level FlightAware Approximate
Sun 11:52:46 AM 42.6233 -74.1275 229° Southwest 230 265 11,900  Level Boston Center
Sun 11:53:00 AM 42.6103 -74.4530 220° Southwest  Level FlightAware Approximate
Sun 11:53:46 AM 42.5889 -74.1942 235° Southwest 243 280 13,800  Level Boston Center
Sun 11:54:46 AM 42.5400 -74.2661 227° Southwest 243 280 15,900 1,000 Climbing Boston Center
Sun 11:55:58 AM 42.4889 -74.3350 225° Southwest 273 314 16,000 45 Climbing Boston Center
Sun 11:56:58 AM 42.4203 -74.4481 231° Southwest 324 373 16,000  Level Boston Center
Sun 11:57:58 AM 42.3639 -74.5589 235° Southwest 335 386 16,000 32 Level Boston Center
Sun 12:00:05 PM 42.2356 -74.7481 228° Southwest 339 390 16,100  Climbing New York Center
Sun 12:01:06 PM 42.1722 -74.8394 227° Southwest 345 397 16,000  Descending New York Center
Sun 12:02:06 PM 42.1064 -74.9331 227° Southwest 345 397 16,100 50 Climbing New York Center
Sun 12:03:05 PM 42.0406 -75.0294 227° Southwest 345 397 16,100 -50 Level New York Center
Sun 12:04:06 PM 41.9814 -75.1122 226° Southwest 350 403 16,000 -50 Descending New York Center
Sun 12:05:06 PM 41.9039 -75.1850 215° Southwest 350 403 16,000  Level New York Center
Sun 12:06:06 PM 41.8094 -75.2594 210° Southwest 350 403 16,000 -407 Level New York Center
Sun 12:07:04 PM 41.7297 -75.3264 212° Southwest 351 404 15,200 -1,271 Descending New York Center
Sun 12:08:04 PM 41.6567 -75.3853 211° Southwest 338 389 13,500 -1,600 Descending New York Center
Sun 12:09:04 PM 41.5900 -75.4389 211° Southwest 317 365 12,000 -744 Descending New York Center
Sun 12:10:05 PM 41.5192 -75.4950 211° Southwest 311 358 12,000  Level New York Center
Sun 12:11:06 PM 41.4394 -75.5583 211° Southwest 305 351 12,000  Level New York Center
Sun 12:12:05 PM 41.3642 -75.6194 211° Southwest 317 365 12,000  Level New York Center
Sun 12:13:05 PM 41.2911 -75.6750 210° Southwest 322 371 12,000  Level New York Center
Sun 12:14:06 PM 41.2008 -75.6906 187° South 331 381 12,000 -50 Level New York Center
Sun 12:15:04 PM 41.1036 -75.6750 173° South 344 396 11,900 -458 Descending New York Center
Sun 12:16:04 PM 41.0092 -75.6408 165° South 349 402 11,100 -942 Descending New York Center
Sun 12:17:05 PM 40.9044 -75.6031 165° South 355 409 10,000 -545 Descending New York Center
Sun 12:18:05 PM 40.8142 -75.5692 164° South 350 403 10,000  Level New York Center
Sun 12:19:06 PM 40.7197 -75.5325 164° South 350 403 10,000  Level New York Center
Sun 12:20:06 PM 40.6294 -75.4989 164° South 350 403 10,000  Level New York Center
Sun 12:21:04 PM 40.5389 -75.4681 165° South 350 403 10,000 -51 Level New York Center
Sun 12:22:04 PM 40.4589 -75.4381 164° South 322 371 9,900 -694 Descending New York Center
Sun 12:23:05 PM 40.3831 -75.4083 163° South 294 338 8,600 -1,339 Descending New York Center
Sun 12:24:05 PM 40.3153 -75.3822 164° South 284 327 7,200 -800 Descending New York Center
Sun 12:25:05 PM 40.2411 -75.3553 164° South 260 299 7,000 -50 Descending New York Center
Sun 12:26:06 PM 40.1817 -75.3297 162° South 241 277 7,100 50 Climbing New York Center
Sun 12:27:06 PM 40.1492 -75.2569 120° Southeast 223 257 7,100  Level New York Center
Sun 12:28:04 PM 40.1186 -75.1789 117° Southeast 234 269 7,100 -556 Level New York Center
Sun 12:28:54 PM 40.1000 -75.1167 111° Southeast 237 273 6,100 -545 Descending Philadelphia TRACON
Sun 12:29:54 PM 40.0667 -75.0333 118° Southeast 219 252 6,100 -200 Level Philadelphia TRACON
Sun 12:30:54 PM 40.0333 -75.0000 143° Southeast 188 216 5,700 -500 Descending Philadelphia TRACON
Sun 12:31:54 PM 39.9833 -74.9833 166° South 195 224 5,100 -600 Descending Philadelphia TRACON
Sun 12:32:54 PM 39.9333 -74.9833 180° South 196 226 4,500 -600 Descending Philadelphia TRACON

Login

Don't have an account? Register now (free) for customized features, flight alerts, and more!